Time;durP1;ratioP1;P1;durP2;ratioP2;P2;SDS_P1;SDS_P2;PMS_P1;PMS_P2;Temp;Humidity;BMP_temperature;BMP_pressure;BME280_temperature;BME280_humidity;BME280_pressure;Samples;Min_cycle;Max_cycle;Signal;HPM_P1;HPM_P2
2023/10/16 00:01:26;;;;;;;2.25;0.98;;;;;;;7.01;62.58;93154.16;2072290;69;20595;-73
2023/10/16 00:03:52;;;;;;;3.55;1.10;;;;;;;6.91;63.67;93156.16;2072377;69;20526;-72
2023/10/16 00:06:19;;;;;;;2.78;1.02;;;;;;;6.93;62.97;93147.94;2068825;69;20580;-72
2023/10/16 00:08:47;;;;;;;2.38;1.17;;;;;;;6.87;63.26;93148.16;2068699;69;20136;-73
2023/10/16 00:11:17;;;;;;;3.13;1.17;;;;;;;6.79;63.26;93151.06;2068341;69;20168;-73
2023/10/16 00:13:47;;;;;;;3.00;0.95;;;;;;;6.81;63.26;93142.09;2071918;69;20244;-73
2023/10/16 00:16:17;;;;;;;3.22;1.10;;;;;;;6.93;62.85;93143.06;2071978;69;20175;-73
2023/10/16 00:18:45;;;;;;;2.72;1.10;;;;;;;6.86;62.98;93141.09;2072039;69;20619;-73
2023/10/16 00:21:13;;;;;;;4.03;1.20;;;;;;;6.75;62.67;93139.53;2072259;69;20607;-73
2023/10/16 00:23:39;;;;;;;7.05;1.10;;;;;;;6.72;62.83;93128.75;2072414;69;20160;-73
2023/10/16 00:26:14;;;;;;;2.30;1.13;;;;;;;6.71;63.48;93135.66;2072298;69;20156;-73
2023/10/16 00:28:46;;;;;;;3.15;1.10;;;;;;;6.77;63.00;93130.56;2072138;69;20546;-73
2023/10/16 00:31:20;;;;;;;2.33;1.10;;;;;;;6.71;63.83;93130.06;2072154;69;20151;-73
2023/10/16 00:33:48;;;;;;;3.20;1.50;;;;;;;6.72;64.03;93128.75;2068953;69;20159;-73
2023/10/16 00:36:14;;;;;;;2.30;1.20;;;;;;;6.63;64.09;93130.88;2071876;69;20237;-73
2023/10/16 00:38:41;;;;;;;1.63;0.98;;;;;;;6.68;62.81;93120.75;2068611;69;20187;-74
2023/10/16 00:41:17;;;;;;;2.88;1.00;;;;;;;6.61;63.65;93116.75;2068716;69;20237;-73
2023/10/16 00:43:44;;;;;;;2.40;1.20;;;;;;;6.64;63.97;93117.63;2071684;69;20221;-74
2023/10/16 00:46:14;;;;;;;3.88;1.30;;;;;;;6.63;63.38;93125.28;2068770;69;20137;-73
2023/10/16 00:48:40;;;;;;;1.92;1.00;;;;;;;6.59;64.13;93113.75;2072015;69;20239;-73
2023/10/16 00:51:09;;;;;;;2.75;1.23;;;;;;;6.65;64.00;93124.72;2068725;69;20593;-74
2023/10/16 00:53:40;;;;;;;1.80;1.10;;;;;;;6.61;64.10;93113.19;2072076;69;20653;-74
2023/10/16 00:56:13;;;;;;;1.50;1.02;;;;;;;6.56;63.59;93103.75;2072035;69;20144;-74
2023/10/16 00:58:47;;;;;;;1.95;1.08;;;;;;;6.52;64.22;93109.00;2068845;69;20159;-74
2023/10/16 01:01:13;;;;;;;1.73;0.98;;;;;;;6.44;64.63;93108.31;2068888;69;20249;-73
2023/10/16 01:03:45;;;;;;;1.88;1.05;;;;;;;6.52;64.20;93111.06;2068704;69;20148;-75
2023/10/16 01:06:21;;;;;;;1.63;1.00;;;;;;;6.56;64.18;93119.78;2071799;69;20257;-73
2023/10/16 01:08:51;;;;;;;1.90;1.20;;;;;;;6.56;63.85;93125.38;2071644;69;20503;-74
2023/10/16 01:11:22;;;;;;;2.60;1.33;;;;;;;6.39;63.92;93102.97;2065822;69;20231;-76
2023/10/16 01:13:48;;;;;;;3.35;1.30;;;;;;;6.51;64.79;93127.09;2068894;69;20179;-74
2023/10/16 01:16:17;;;;;;;4.50;1.33;;;;;;;6.51;63.65;93121.50;2066425;69;20691;-75
2023/10/16 01:18:45;;;;;;;3.38;1.20;;;;;;;6.53;64.40;93129.31;2068551;69;20171;-73
2023/10/16 01:21:13;;;;;;;2.90;1.40;;;;;;;6.48;65.06;93124.72;2069186;69;20145;-75
2023/10/16 01:23:40;;;;;;;1.98;1.27;;;;;;;6.44;65.27;93130.69;2069205;69;20164;-74
2023/10/16 01:26:06;;;;;;;3.10;1.35;;;;;;;6.44;65.41;93121.56;2072533;69;20140;-73
2023/10/16 01:28:32;;;;;;;3.60;1.77;;;;;;;6.38;65.21;93118.28;2072201;69;20163;-75
2023/10/16 01:31:00;;;;;;;3.42;1.30;;;;;;;6.33;65.92;93120.75;2069167;69;20156;-75
2023/10/16 01:33:25;;;;;;;2.80;1.35;;;;;;;6.35;65.28;93132.09;2066503;69;20143;-74
2023/10/16 01:35:51;;;;;;;1.77;1.13;;;;;;;6.29;65.67;93122.47;2069117;69;20176;-74
2023/10/16 01:38:18;;;;;;;1.77;1.20;;;;;;;6.27;65.59;93131.41;2066409;69;20239;-73
2023/10/16 01:43:33;;;;;;;2.83;1.23;;;;;;;6.27;65.51;93134.19;2069038;69;20578;-75
2023/10/16 01:46:11;;;;;;;2.67;1.20;;;;;;;6.27;65.51;93130.66;2072471;69;20151;-73
2023/10/16 01:48:41;;;;;;;4.43;1.27;;;;;;;6.19;66.04;93136.34;2069004;69;20152;-73
2023/10/16 01:51:20;;;;;;;2.00;1.20;;;;;;;6.16;66.23;93131.16;2072269;69;20151;-73
2023/10/16 01:53:47;;;;;;;2.13;1.13;;;;;;;6.20;66.14;93134.28;2066643;69;20133;-73
2023/10/16 01:56:14;;;;;;;2.70;1.20;;;;;;;6.21;64.72;93127.38;2072676;69;20290;-75
2023/10/16 01:58:45;;;;;;;1.95;1.40;;;;;;;6.15;65.08;93113.63;2069065;69;20141;-74
2023/10/16 02:01:15;;;;;;;2.10;1.20;;;;;;;6.12;65.87;93123.16;2069144;69;20171;-73
2023/10/16 02:03:45;;;;;;;3.13;1.40;;;;;;;6.09;66.54;93121.50;2069005;69;20168;-74
2023/10/16 02:06:12;;;;;;;3.75;1.27;;;;;;;6.01;66.98;93112.47;2069115;69;20219;-73
2023/10/16 02:08:39;;;;;;;3.72;1.20;;;;;;;6.06;67.03;93114.28;2069087;69;20184;-74
2023/10/16 02:11:06;;;;;;;3.88;1.20;;;;;;;6.00;66.26;93110.94;2072361;69;20152;-74
2023/10/16 02:13:35;;;;;;;2.45;1.20;;;;;;;5.86;66.92;93104.88;2072305;69;20227;-73
2023/10/16 02:16:02;;;;;;;4.10;1.42;;;;;;;5.79;67.30;93114.09;2066250;69;20235;-73
2023/10/16 02:18:36;;;;;;;4.63;1.67;;;;;;;5.81;67.35;93109.41;2066185;69;20638;-73
2023/10/16 02:21:02;;;;;;;1.75;1.40;;;;;;;5.87;66.78;93106.38;2069264;69;20140;-73
2023/10/16 02:23:31;;;;;;;4.60;1.63;;;;;;;5.84;67.79;93107.53;2072404;69;20155;-74
2023/10/16 02:26:05;;;;;;;2.30;1.33;;;;;;;5.82;67.42;93107.38;2072200;69;20232;-73
2023/10/16 02:28:33;;;;;;;2.53;1.40;;;;;;;5.80;67.25;93093.94;2072376;69;20144;-73
2023/10/16 02:31:13;;;;;;;1.98;1.30;;;;;;;5.74;66.84;93087.84;2072330;69;20140;-73
2023/10/16 02:33:50;;;;;;;2.50;1.58;;;;;;;5.78;67.68;93093.06;2069067;69;20148;-73
2023/10/16 02:36:18;;;;;;;3.15;1.38;;;;;;;5.76;67.42;93095.66;2069165;69;20198;-73
2023/10/16 02:38:56;;;;;;;1.83;1.30;;;;;;;5.74;67.22;93092.72;2069113;69;20160;-73
2023/10/16 02:41:22;;;;;;;4.07;1.30;;;;;;;5.63;66.75;93088.28;2069236;69;20144;-74
2023/10/16 02:43:48;;;;;;;2.78;1.27;;;;;;;5.61;67.58;93094.47;2072408;69;20595;-73
2023/10/16 02:46:18;;;;;;;4.60;1.38;;;;;;;5.53;66.71;93087.44;2068788;69;20141;-73
2023/10/16 02:49:00;;;;;;;2.55;1.25;;;;;;;5.60;67.36;93090.19;2061618;69;20141;-72
2023/10/16 02:51:26;;;;;;;4.55;1.30;;;;;;;5.55;67.67;93093.94;2064394;69;20219;-73
2023/10/16 02:53:54;;;;;;;3.05;1.10;;;;;;;5.58;66.96;93090.00;2061624;69;20189;-73
2023/10/16 02:56:22;;;;;;;4.13;1.52;;;;;;;5.53;67.60;93090.22;2061663;69;20141;-74
2023/10/16 02:58:55;;;;;;;2.35;1.23;;;;;;;5.58;66.87;93090.00;2064294;69;20247;-74
2023/10/16 03:01:23;;;;;;;2.25;1.30;;;;;;;5.53;67.47;93087.44;2061743;69;20389;-74
2023/10/16 03:03:49;;;;;;;2.75;1.30;;;;;;;5.51;67.59;93085.22;2061740;69;20213;-74
2023/10/16 03:06:16;;;;;;;2.67;1.25;;;;;;;5.46;67.50;93091.03;2061551;69;20149;-74
2023/10/16 03:08:51;;;;;;;2.00;1.20;;;;;;;5.34;67.83;93079.56;2058712;69;20137;-73
2023/10/16 03:11:17;;;;;;;3.38;1.45;;;;;;;5.42;67.69;93085.84;2061305;69;20217;-73
2023/10/16 03:13:43;;;;;;;1.52;1.30;;;;;;;5.39;68.13;93086.22;2061540;69;20168;-75
2023/10/16 03:16:16;;;;;;;3.72;1.30;;;;;;;5.38;68.12;93085.50;2061548;69;20163;-74
2023/10/16 03:18:44;;;;;;;5.10;1.65;;;;;;;5.29;67.26;93084.06;2064370;69;20144;-74
2023/10/16 03:23:43;;;;;;;2.03;1.13;;;;;;;5.23;68.20;93085.59;2061795;69;20137;-74
2023/10/16 03:26:18;;;;;;;2.13;1.35;;;;;;;5.26;67.70;93090.03;2067563;69;20105;-74
2023/10/16 03:28:45;;;;;;;3.00;1.40;;;;;;;5.11;68.67;93079.69;2069049;69;20109;-74
2023/10/16 03:31:11;;;;;;;3.22;1.38;;;;;;;5.20;67.53;93081.88;2069157;69;20152;-73
2023/10/16 03:33:38;;;;;;;4.22;1.40;;;;;;;5.17;67.95;93085.78;2068686;69;20501;-74
2023/10/16 03:36:04;;;;;;;2.97;1.30;;;;;;;5.18;67.96;93084.50;2068923;69;20195;-77
2023/10/16 03:38:41;;;;;;;2.60;1.50;;;;;;;5.07;68.66;93080.06;2066225;69;20124;-77
2023/10/16 03:43:56;;;;;;;2.50;1.55;;;;;;;5.07;67.73;93071.72;2072176;69;20179;-75
2023/10/16 03:46:26;;;;;;;3.53;2.13;;;;;;;5.02;68.83;93072.66;2072515;69;20681;-73
2023/10/16 03:48:52;;;;;;;3.13;2.00;;;;;;;5.02;68.26;93074.72;2072535;69;20148;-75
2023/10/16 03:51:18;;;;;;;2.33;1.50;;;;;;;4.96;68.41;93065.84;2072595;69;20152;-75
2023/10/16 03:53:45;;;;;;;4.43;1.27;;;;;;;4.99;67.99;93076.56;2072222;69;20152;-73
2023/10/16 03:56:30;;;;;;;1.98;1.40;;;;;;;4.93;68.61;93067.69;2067998;69;20133;-76
2023/10/16 03:58:57;;;;;;;3.70;1.40;;;;;;;4.96;68.34;93069.34;2065174;69;20530;-76
2023/10/16 04:01:29;;;;;;;1.98;1.30;;;;;;;4.89;69.04;93058.97;2068025;69;20148;-72
2023/10/16 04:03:58;;;;;;;2.72;1.20;;;;;;;4.88;68.30;93062.34;2064948;69;20627;-72
2023/10/16 04:06:26;;;;;;;4.18;1.58;;;;;;;4.87;68.57;93061.59;2064951;69;20144;-72
2023/10/16 04:08:53;;;;;;;1.70;1.30;;;;;;;4.90;68.57;93065.28;2068094;69;20606;-73
2023/10/16 04:11:24;;;;;;;2.22;1.17;;;;;;;4.90;68.66;93059.69;2062498;69;20515;-73
2023/10/16 04:13:52;;;;;;;3.13;1.40;;;;;;;4.83;68.44;93066.81;2068138;69;20141;-73
2023/10/16 04:16:31;;;;;;;4.95;2.17;;;;;;;4.85;69.19;93061.41;2068127;69;20152;-72
2023/10/16 04:19:20;;;;;;;5.07;2.80;;;;;;;4.82;68.48;93062.56;2068300;69;20164;-73
2023/10/16 04:24:31;;;;;;;5.85;2.92;;;;;;;4.78;69.40;93062.19;2068238;69;20205;-73
2023/10/16 04:29:45;;;;;;;6.80;3.50;;;;;;;4.76;69.05;93050.84;2072283;69;20158;-75
2023/10/16 04:35:03;;;;;;;4.22;2.80;;;;;;;4.67;69.96;93043.06;2072110;69;20171;-72
2023/10/16 04:37:36;;;;;;;4.57;2.88;;;;;;;4.64;68.72;93033.81;2072150;69;20225;-75
2023/10/16 04:50:29;;;;;;;6.32;3.70;;;;;;;4.58;70.01;93053.53;2072732;69;20144;-73
2023/10/16 05:14:22;;;;;;;6.53;2.75;;;;;;;4.37;70.35;93049.53;2072444;69;20597;-73
2023/10/16 06:14:14;;;;;;;4.13;2.13;;;;;;;4.30;70.66;93074.03;2072139;69;20156;-73
2023/10/16 06:16:40;;;;;;;7.90;2.25;;;;;;;4.33;70.26;93070.16;2072407;69;20148;-72
2023/10/16 06:19:17;;;;;;;5.85;2.38;;;;;;;4.34;70.95;93071.63;2069071;69;20166;-72
2023/10/16 06:21:49;;;;;;;4.15;2.35;;;;;;;4.34;69.94;93071.63;2069186;69;20244;-73
2023/10/16 06:24:25;;;;;;;3.03;2.30;;;;;;;4.36;70.67;93073.88;2072418;69;20144;-73
2023/10/16 06:26:55;;;;;;;4.43;2.30;;;;;;;4.19;70.62;93046.59;2072402;69;20152;-73
2023/10/16 06:29:49;;;;;;;6.72;2.50;;;;;;;4.41;69.73;93072.19;2066283;69;20508;-72
2023/10/16 06:32:18;;;;;;;4.60;2.05;;;;;;;4.44;70.47;93071.78;2068881;69;20634;-73
2023/10/16 06:35:14;;;;;;;;;;;;;;;;;;;;;
2023/10/16 06:37:47;;;;;;;4.65;2.42;;;;;;;4.51;70.51;93087.75;2072380;69;20588;-73
2023/10/16 06:40:16;;;;;;;3.70;2.60;;;;;;;4.63;70.33;93081.75;2072394;69;20145;-72
2023/10/16 06:42:48;;;;;;;4.97;3.00;;;;;;;4.65;70.83;93082.69;2072247;69;20611;-73
2023/10/16 06:45:19;;;;;;;7.47;3.50;;;;;;;4.69;70.88;93076.72;2072481;69;20156;-73
2023/10/16 06:47:49;;;;;;;8.00;3.97;;;;;;;4.75;71.27;93077.25;2072491;69;20605;-74
2023/10/16 06:52:54;;;;;;;9.20;4.00;;;;;;;4.94;70.94;93076.78;2069311;69;20128;-73
2023/10/16 06:55:23;;;;;;;7.75;3.78;;;;;;;5.00;70.34;93075.28;2072272;69;20155;-76
2023/10/16 06:57:49;;;;;;;7.75;3.97;;;;;;;5.03;69.74;93059.44;2068666;69;20144;-74
2023/10/16 07:00:32;;;;;;;7.88;5.03;;;;;;;5.26;69.60;93070.50;2072192;69;20140;-73
2023/10/16 07:03:01;;;;;;;7.47;4.43;;;;;;;5.31;69.43;93067.50;2072066;69;20201;-72
2023/10/16 07:05:44;;;;;;;7.93;5.28;;;;;;;5.35;70.08;93070.59;2068784;69;20747;-72
2023/10/16 07:08:22;;;;;;;9.13;5.43;;;;;;;5.55;68.09;93074.41;2072222;69;20143;-73
2023/10/16 07:10:55;;;;;;;14.05;7.97;;;;;;;5.66;69.00;93076.00;2068971;69;20136;-73
2023/10/16 07:13:27;;;;;;;12.00;7.40;;;;;;;5.81;69.18;93080.72;2072139;69;20133;-74
2023/10/16 07:16:03;;;;;;;19.02;9.77;;;;;;;5.80;68.88;93071.59;2072382;69;20136;-74
2023/10/16 07:18:32;;;;;;;28.42;16.65;;;;;;;5.87;69.02;93075.66;2069075;69;20179;-74
2023/10/16 07:23:36;;;;;;;30.60;17.50;;;;;;;5.77;69.45;93072.00;2072353;69;20143;-73
2023/10/16 07:26:04;;;;;;;27.92;14.18;;;;;;;5.78;69.57;93068.66;2072366;69;20228;-73
2023/10/16 07:28:33;;;;;;;22.15;11.52;;;;;;;5.97;68.67;93076.53;2068895;69;20144;-74
2023/10/16 07:30:59;;;;;;;18.10;10.43;;;;;;;6.13;68.12;93074.31;2072316;69;20180;-74
2023/10/16 07:33:26;;;;;;;17.27;10.00;;;;;;;6.30;68.01;93068.75;2072385;69;20148;-74
2023/10/16 07:35:54;;;;;;;16.67;10.15;;;;;;;6.41;67.45;93070.31;2068706;69;20147;-73
2023/10/16 07:38:25;;;;;;;15.60;8.55;;;;;;;6.48;66.00;93061.13;2072262;69;20151;-73
2023/10/16 07:40:53;;;;;;;16.02;8.90;;;;;;;6.44;66.71;93063.59;2072350;69;20551;-73
2023/10/16 07:43:26;;;;;;;12.63;8.50;;;;;;;6.37;67.29;93061.63;2072331;69;20167;-74
2023/10/16 07:49:15;;;;;;;14.75;8.55;;;;;;;6.16;68.43;93064.78;2057978;69;20193;-73
2023/10/16 07:51:45;;;;;;;11.80;7.22;;;;;;;5.89;69.16;93058.31;2057809;69;20184;-72
2023/10/16 07:54:11;;;;;;;9.30;5.85;;;;;;;6.13;68.88;93071.53;2057904;69;20156;-74
2023/10/16 07:56:38;;;;;;;11.35;6.00;;;;;;;6.40;68.10;93062.50;2057783;69;20150;-72
2023/10/16 07:59:08;;;;;;;9.43;5.90;;;;;;;6.79;67.14;93061.50;2057712;69;20584;-73
2023/10/16 08:01:42;;;;;;;10.35;5.43;;;;;;;7.02;66.42;93064.03;2057849;69;20189;-74
2023/10/16 08:04:51;;;;;;;10.43;5.65;;;;;;;7.24;66.14;93067.84;2055085;69;20175;-74
2023/10/16 08:09:57;;;;;;;8.60;4.97;;;;;;;7.55;65.35;93067.41;2056206;69;20152;-74
2023/10/16 08:12:35;;;;;;;8.48;4.80;;;;;;;7.93;63.96;93061.25;2057813;69;20181;-74
2023/10/16 08:15:09;;;;;;;6.88;4.15;;;;;;;8.08;63.31;93068.66;2057964;69;20144;-74
2023/10/16 08:17:36;;;;;;;6.65;3.60;;;;;;;8.53;61.35;93052.38;2057650;69;20154;-73
2023/10/16 08:20:06;;;;;;;6.07;3.85;;;;;;;8.69;61.79;93044.41;2057758;69;20165;-75
2023/10/16 08:22:33;;;;;;;5.80;3.55;;;;;;;8.95;60.58;93054.00;2061185;69;20184;-73
2023/10/16 08:24:59;;;;;;;6.20;3.53;;;;;;;8.65;61.07;93054.00;2069255;69;20152;-74
2023/10/16 08:33:06;;;;;;;5.53;2.83;;;;;;;8.98;59.51;93052.81;2069325;69;20151;-76
2023/10/16 08:35:38;;;;;;;4.53;2.08;;;;;;;8.96;59.27;93059.00;2069214;69;20141;-74
2023/10/16 08:38:11;;;;;;;5.82;3.67;;;;;;;9.61;58.30;93038.31;2068711;69;20253;-74
2023/10/16 08:40:42;;;;;;;5.40;3.55;;;;;;;10.18;58.20;93044.31;2069314;69;20143;-73
2023/10/16 08:43:17;;;;;;;8.13;4.00;;;;;;;10.19;57.31;93042.97;2069021;69;20228;-74
2023/10/16 08:45:49;;;;;;;15.77;8.93;;;;;;;10.49;57.74;93046.34;2068962;69;20261;-74
2023/10/16 08:48:18;;;;;;;8.50;4.95;;;;;;;10.53;57.03;93038.91;2068928;69;20133;-76
2023/10/16 08:50:57;;;;;;;6.93;3.83;;;;;;;11.06;56.36;93031.09;2065963;69;20175;-74
2023/10/16 08:53:32;;;;;;;7.57;4.05;;;;;;;11.15;56.42;93026.72;2068922;69;20144;-74
2023/10/16 08:56:08;;;;;;;5.10;3.53;;;;;;;10.79;57.00;93036.38;2069189;69;20205;-76
2023/10/16 08:58:39;;;;;;;5.72;3.63;;;;;;;10.81;57.21;93025.97;2069112;69;20718;-74
2023/10/16 09:01:09;;;;;;;4.85;2.70;;;;;;;11.08;57.08;93027.66;2068685;69;20531;-74
2023/10/16 09:03:56;;;;;;;7.03;3.42;;;;;;;11.38;56.72;93023.22;2069145;69;20152;-73
2023/10/16 09:06:24;;;;;;;4.10;2.97;;;;;;;11.61;54.46;93017.63;2069156;69;20169;-76
2023/10/16 09:08:54;;;;;;;5.47;3.20;;;;;;;12.07;53.85;93027.50;2069114;69;20233;-76
2023/10/16 09:11:21;;;;;;;7.07;3.47;;;;;;;11.99;53.14;93015.00;2068982;69;20183;-74
2023/10/16 09:13:52;;;;;;;4.70;3.00;;;;;;;11.52;53.95;93014.94;2072435;69;20141;-73
2023/10/16 09:16:23;;;;;;;4.90;2.65;;;;;;;11.63;53.32;93012.09;2072864;69;20201;-73
2023/10/16 09:18:59;;;;;;;4.70;2.40;;;;;;;12.46;52.56;93004.38;2072873;69;20176;-77
2023/10/16 09:21:28;;;;;;;6.28;3.53;;;;;;;13.28;50.79;93006.94;2072900;69;20281;-75
2023/10/16 09:24:03;;;;;;;7.95;3.35;;;;;;;13.42;50.10;93004.94;2069016;69;20195;-75
2023/10/16 09:26:37;;;;;;;4.00;2.38;;;;;;;12.39;49.62;93000.47;2072447;69;20228;-74
2023/10/16 09:29:13;;;;;;;5.15;2.38;;;;;;;12.97;50.77;92987.53;2072281;69;20168;-75
2023/10/16 09:31:43;;;;;;;4.18;2.10;;;;;;;13.60;48.99;92993.84;2072512;69;20160;-75
2023/10/16 09:34:10;;;;;;;5.72;2.30;;;;;;;14.47;47.17;92992.03;2069490;69;20139;-76
2023/10/16 09:36:37;;;;;;;5.97;3.00;;;;;;;14.65;46.56;92991.53;2072875;69;20145;-76
2023/10/16 09:39:16;;;;;;;7.28;1.70;;;;;;;13.38;46.80;92984.19;2073073;69;20218;-76
2023/10/16 09:41:43;;;;;;;4.13;1.60;;;;;;;13.30;47.36;92987.28;2072840;69;20141;-75
2023/10/16 09:44:24;;;;;;;3.85;1.90;;;;;;;14.09;48.63;92985.13;2072437;69;20144;-75
2023/10/16 09:46:53;;;;;;;3.13;1.83;;;;;;;15.21;45.43;92981.53;2072527;69;20519;-76
2023/10/16 09:49:21;;;;;;;8.07;5.22;;;;;;;15.58;44.87;92975.50;2069377;69;20116;-76
2023/10/16 09:51:57;;;;;;;4.05;2.10;;;;;;;15.92;43.17;92979.22;2072638;69;20258;-76
2023/10/16 09:54:25;;;;;;;12.52;7.80;;;;;;;16.67;42.93;92975.34;2069278;69;20136;-76
2023/10/16 09:56:59;;;;;;;9.75;6.00;;;;;;;17.39;42.13;92979.78;2072421;69;20185;-76
2023/10/16 09:59:34;;;;;;;8.27;4.95;;;;;;;17.65;41.00;92962.28;2068607;69;20204;-76
2023/10/16 10:02:09;;;;;;;5.65;4.05;;;;;;;17.48;40.35;92960.91;2072167;69;20140;-77
2023/10/16 10:04:43;;;;;;;6.05;3.40;;;;;;;17.91;40.15;92954.75;2072141;69;20642;-77
2023/10/16 10:07:34;;;;;;;5.13;2.20;;;;;;;16.67;41.43;92961.88;2071954;69;20220;-75
2023/10/16 10:11:04;;;;;;;2.65;1.92;;;;;;;16.89;41.30;92955.69;2069003;69;20306;-75
2023/10/16 10:12:53;;;;;;;5.55;2.35;;;;;;;16.67;40.61;92949.78;2069660;69;20155;-75
2023/10/16 10:15:25;;;;;;;4.37;1.60;;;;;;;17.66;38.32;92952.38;2072484;69;20508;-75
2023/10/16 10:17:55;;;;;;;4.30;1.35;;;;;;;17.64;38.41;92949.41;2072232;69;20294;-76
2023/10/16 10:20:44;;;;;;;3.45;1.33;;;;;;;19.38;36.88;92939.19;2072340;69;20144;-76
2023/10/16 10:23:15;;;;;;;3.28;2.05;;;;;;;20.98;35.49;92936.69;2069375;69;20140;-76
2023/10/16 10:25:41;;;;;;;3.10;1.65;;;;;;;21.54;34.44;92948.16;2066275;69;20148;-77
2023/10/16 10:28:25;;;;;;;1.80;1.58;;;;;;;20.80;34.67;92940.56;2069335;69;20145;-75
2023/10/16 10:30:55;;;;;;;1.92;1.08;;;;;;;21.25;32.65;92930.25;2072147;69;20156;-77
2023/10/16 10:33:55;;;;;;;2.80;1.35;;;;;;;21.28;34.03;92936.75;2072214;69;20183;-77
2023/10/16 10:36:36;;;;;;;2.95;1.30;;;;;;;20.95;33.79;92924.50;2069031;69;20143;-77
2023/10/16 10:39:21;;;;;;;3.38;2.08;;;;;;;22.48;33.32;92927.28;2072532;69;20227;-77
2023/10/16 10:42:03;;;;;;;2.67;1.52;;;;;;;22.55;32.84;92921.00;2072533;69;20128;-77
2023/10/16 10:44:30;;;;;;;3.42;1.48;;;;;;;24.05;31.42;92909.88;2072688;69;20144;-77
2023/10/16 10:46:56;;;;;;;5.13;3.05;;;;;;;24.54;30.33;92914.16;2068888;69;20237;-75
2023/10/16 10:49:33;;;;;;;2.83;1.80;;;;;;;25.41;29.55;92905.00;2068984;69;20574;-75
2023/10/16 10:52:04;;;;;;;1.98;1.50;;;;;;;24.84;28.86;92895.78;2072180;69;20145;-75
2023/10/16 10:54:31;;;;;;;2.20;1.38;;;;;;;23.38;30.60;92895.22;2072541;69;20155;-74
2023/10/16 10:56:59;;;;;;;2.63;1.40;;;;;;;26.29;28.35;92899.84;2069002;69;20163;-75
2023/10/16 10:59:39;;;;;;;2.88;1.50;;;;;;;27.39;26.79;92899.53;2072279;69;20152;-77
2023/10/16 11:04:45;;;;;;;2.33;1.20;;;;;;;30.82;24.84;92896.31;2072348;69;20164;-75
2023/10/16 11:07:13;;;;;;;2.00;1.30;;;;;;;29.65;23.92;92889.47;2072302;69;20152;-77
2023/10/16 11:09:39;;;;;;;3.10;1.10;;;;;;;27.52;27.57;92883.63;2072346;69;20194;-77
2023/10/16 11:12:08;;;;;;;2.85;2.00;;;;;;;29.24;26.03;92875.94;2072165;69;20280;-77
2023/10/16 11:14:38;;;;;;;1.65;1.02;;;;;;;31.13;24.97;92882.09;2072613;69;20210;-78
2023/10/16 11:17:08;;;;;;;1.80;1.00;;;;;;;30.53;23.77;92874.84;2071099;69;20168;-78
2023/10/16 11:19:49;;;;;;;1.83;1.02;;;;;;;31.45;22.22;92856.94;2072151;69;20145;-78
2023/10/16 11:22:26;;;;;;;1.52;1.23;;;;;;;29.55;25.02;92853.28;2072294;69;20342;-76
2023/10/16 11:24:54;;;;;;;2.17;1.30;;;;;;;33.14;22.84;92856.78;2072165;69;20580;-75
2023/10/16 11:27:20;;;;;;;2.45;0.93;;;;;;;31.99;21.56;92851.72;2072314;69;20223;-74
2023/10/16 11:29:52;;;;;;;2.22;1.20;;;;;;;33.01;21.03;92854.91;2072451;69;20252;-76
2023/10/16 11:32:25;;;;;;;1.58;0.90;;;;;;;35.84;20.49;92853.28;2072434;69;20144;-75
2023/10/16 11:34:59;;;;;;;1.95;1.35;;;;;;;35.11;19.72;92838.69;2072292;69;20227;-77
2023/10/16 11:37:25;;;;;;;2.20;1.02;;;;;;;35.59;19.57;92837.97;2072345;69;20176;-77
2023/10/16 11:39:58;;;;;;;3.50;1.00;;;;;;;33.32;19.68;92826.50;2072364;69;20154;-77
2023/10/16 11:42:25;;;;;;;2.35;1.42;;;;;;;36.83;18.73;92836.00;2072279;69;20160;-77
2023/10/16 11:44:51;;;;;;;1.50;1.10;;;;;;;31.57;21.14;92821.13;2072374;69;20600;-77
2023/10/16 11:47:21;;;;;;;1.92;1.10;;;;;;;32.60;21.53;92820.75;2072127;69;20136;-76
2023/10/16 11:49:54;;;;;;;2.35;1.60;;;;;;;35.48;19.35;92820.03;2072344;69;20237;-76
2023/10/16 11:52:21;;;;;;;1.50;1.20;;;;;;;36.97;20.11;92820.81;2072341;69;20489;-78
2023/10/16 11:54:52;;;;;;;2.45;1.40;;;;;;;36.67;19.15;92813.84;2072382;69;20639;-76
2023/10/16 11:57:17;;;;;;;1.60;1.00;;;;;;;33.38;20.33;92805.94;2071801;69;20205;-79
2023/10/16 11:59:45;;;;;;;1.33;0.80;;;;;;;37.88;17.92;92809.97;2072291;69;20237;-77
2023/10/16 12:02:11;;;;;;;2.08;1.23;;;;;;;35.99;18.08;92809.59;2072256;69;20128;-78
2023/10/16 12:04:37;;;;;;;2.00;1.30;;;;;;;38.04;17.09;92803.44;2068914;69;20174;-76
2023/10/16 12:07:09;;;;;;;2.10;1.40;;;;;;;39.39;16.58;92810.00;2071968;69;20144;-77
2023/10/16 12:09:42;;;;;;;1.42;0.80;;;;;;;39.20;15.43;92803.56;2072213;69;20220;-77
2023/10/16 12:12:21;;;;;;;0.98;0.80;;;;;;;38.77;16.29;92790.78;2072186;69;20183;-76
2023/10/16 12:14:52;;;;;;;1.73;0.95;;;;;;;37.84;16.53;92783.69;2072225;69;20604;-77
2023/10/16 12:17:21;;;;;;;2.28;1.10;;;;;;;35.93;17.62;92780.50;2072130;69;20165;-77
2023/10/16 12:19:47;;;;;;;1.40;1.00;;;;;;;38.95;17.68;92779.69;2068952;69;20149;-77
2023/10/16 12:22:15;;;;;;;2.55;1.33;;;;;;;39.90;16.13;92772.22;2072194;69;20152;-77
2023/10/16 12:24:43;;;;;;;2.30;0.93;;;;;;;35.09;17.26;92759.75;2072239;69;20145;-76
2023/10/16 12:27:09;;;;;;;2.90;1.00;;;;;;;38.43;16.60;92757.69;2072053;69;20148;-76
2023/10/16 12:29:35;;;;;;;1.55;0.90;;;;;;;37.63;17.23;92763.25;2071888;69;20712;-76
2023/10/16 12:32:03;;;;;;;1.63;0.90;;;;;;;39.02;15.69;92755.06;2072416;69;20140;-77
2023/10/16 12:34:32;;;;;;;2.70;1.00;;;;;;;38.57;16.18;92738.72;2072252;69;20147;-77
2023/10/16 12:37:00;;;;;;;1.75;0.88;;;;;;;36.23;17.52;92740.66;2072143;69;20235;-76
2023/10/16 12:39:30;;;;;;;2.70;0.90;;;;;;;39.59;16.56;92739.88;2072023;69;20144;-76
2023/10/16 12:41:56;;;;;;;1.67;1.00;;;;;;;38.08;17.01;92726.88;2072020;69;20148;-77
2023/10/16 12:44:25;;;;;;;1.65;1.10;;;;;;;39.63;16.26;92731.56;2071982;69;20143;-76
2023/10/16 12:46:53;;;;;;;1.48;0.80;;;;;;;38.47;16.67;92734.00;2072142;69;20240;-78
2023/10/16 12:49:22;;;;;;;1.10;0.80;;;;;;;39.06;15.72;92731.31;2071877;69;20223;-77
2023/10/16 12:51:51;;;;;;;1.38;0.90;;;;;;;38.02;16.83;92730.06;2071914;69;20243;-77
2023/10/16 12:54:19;;;;;;;1.50;0.85;;;;;;;36.54;16.40;92731.50;2068924;69;20218;-75
2023/10/16 12:56:45;;;;;;;1.63;0.90;;;;;;;39.04;15.78;92728.50;2071986;69;20156;-77
2023/10/16 12:59:11;;;;;;;1.35;1.10;;;;;;;36.84;16.05;92723.06;2071844;69;20298;-78
2023/10/16 13:01:38;;;;;;;1.30;0.80;;;;;;;37.24;16.22;92714.88;2071986;69;20133;-77
2023/10/16 13:04:13;;;;;;;0.98;0.80;;;;;;;38.65;16.35;92709.66;2071996;69;20159;-76
2023/10/16 13:06:39;;;;;;;1.92;0.93;;;;;;;37.48;16.10;92710.28;2071993;69;20137;-77
2023/10/16 13:09:14;;;;;;;1.02;0.70;;;;;;;37.37;16.09;92715.81;2072072;69;20148;-78
2023/10/16 13:11:41;;;;;;;1.30;0.80;;;;;;;36.53;17.42;92708.84;2072280;69;20214;-78
2023/10/16 13:14:18;;;;;;;2.40;0.80;;;;;;;35.28;17.88;92704.31;2072401;69;20140;-77
2023/10/16 13:16:53;;;;;;;1.63;0.93;;;;;;;34.51;19.12;92701.56;2072426;69;20541;-78
2023/10/16 13:19:20;;;;;;;2.20;0.98;;;;;;;32.83;19.29;92687.63;2072355;69;20610;-78
2023/10/16 13:21:51;;;;;;;3.00;0.98;;;;;;;33.23;20.53;92691.09;2069348;69;20610;-78
2023/10/16 13:24:23;;;;;;;1.80;1.13;;;;;;;32.34;20.74;92682.16;2072614;69;20148;-78
2023/10/16 13:26:52;;;;;;;2.35;1.10;;;;;;;32.95;20.40;92688.88;2069521;69;20221;-78
2023/10/16 13:29:18;;;;;;;2.90;1.00;;;;;;;32.97;19.88;92683.69;2069246;69;20137;-78
2023/10/16 13:31:46;;;;;;;1.48;0.80;;;;;;;31.63;20.89;92687.91;2069500;69;20152;-78
2023/10/16 13:34:17;;;;;;;1.90;0.98;;;;;;;31.47;21.39;92670.03;2069196;69;20231;-79
2023/10/16 13:37:01;;;;;;;2.38;1.27;;;;;;;31.27;21.20;92671.09;2072280;69;20147;-77
2023/10/16 13:39:38;;;;;;;2.05;1.10;;;;;;;29.91;22.17;92657.09;2072583;69;20525;-77
2023/10/16 13:42:08;;;;;;;1.27;0.98;;;;;;;29.34;22.54;92661.34;2072549;69;20227;-75
2023/10/16 13:44:35;;;;;;;1.85;0.98;;;;;;;29.92;22.66;92661.44;2072318;69;20136;-79
2023/10/16 13:47:05;;;;;;;1.38;0.90;;;;;;;29.95;22.01;92656.31;2072320;69;20146;-77
2023/10/16 13:49:36;;;;;;;1.60;1.25;;;;;;;29.03;23.34;92648.59;2072383;69;20156;-77
2023/10/16 13:52:03;;;;;;;2.67;1.40;;;;;;;26.95;25.79;92640.91;2072220;69;20149;-78
2023/10/16 13:54:31;;;;;;;1.48;1.10;;;;;;;27.43;25.25;92645.88;2072470;69;20352;-78
2023/10/16 13:57:01;;;;;;;2.60;1.08;;;;;;;29.04;25.11;92647.84;2072410;69;20164;-78
2023/10/16 13:59:28;;;;;;;1.67;0.90;;;;;;;28.30;24.94;92647.66;2072469;69;20143;-78
2023/10/16 14:01:56;;;;;;;1.90;1.10;;;;;;;26.38;25.74;92646.66;2066588;69;20156;-77